createdAt,value
2022-08-28T00:00:22.568Z,3.40
2022-08-28T00:01:22.558Z,3.80
2022-08-28T00:02:22.567Z,3.60
2022-08-28T00:03:22.539Z,3.30
2022-08-28T00:04:22.590Z,3.60
2022-08-28T00:05:22.540Z,3.40
2022-08-28T00:06:22.504Z,3.40
2022-08-28T00:07:22.497Z,3.40
2022-08-28T00:08:22.494Z,3.20
2022-08-28T00:09:22.482Z,3.50
2022-08-28T00:10:22.751Z,3.40
2022-08-28T00:11:22.463Z,3.40
2022-08-28T00:12:22.453Z,3.40
2022-08-28T00:13:22.461Z,3.30
2022-08-28T00:14:22.435Z,4.20
2022-08-28T00:15:22.436Z,3.30
2022-08-28T00:16:22.476Z,3.30
2022-08-28T00:17:22.405Z,3.60
2022-08-28T00:18:22.390Z,3.40
2022-08-28T00:19:22.377Z,3.50
2022-08-28T00:20:22.387Z,3.70
2022-08-28T00:21:22.362Z,3.50
2022-08-28T00:22:22.349Z,3.70
2022-08-28T00:23:22.339Z,3.50
2022-08-28T00:24:22.331Z,3.00
2022-08-28T00:25:22.340Z,4.00
2022-08-28T00:26:22.312Z,3.30
2022-08-28T00:27:22.302Z,3.20
2022-08-28T00:28:24.403Z,3.40
2022-08-28T00:29:22.277Z,3.80
2022-08-28T00:30:22.298Z,3.20
2022-08-28T00:31:22.320Z,3.20
2022-08-28T00:32:22.249Z,3.10
2022-08-28T00:33:22.240Z,3.10
2022-08-28T00:34:25.494Z,3.00
2022-08-28T00:35:23.254Z,3.50
2022-08-28T00:36:22.211Z,3.20
2022-08-28T00:37:24.636Z,2.90
2022-08-28T00:38:22.189Z,3.00
2022-08-28T00:39:22.182Z,2.90
2022-08-28T00:40:28.872Z,3.00
2022-08-28T00:41:24.992Z,3.20
2022-08-28T00:42:23.154Z,3.30
2022-08-28T00:43:22.144Z,3.20
2022-08-28T00:44:22.129Z,3.20
2022-08-28T00:45:22.135Z,3.10
2022-08-28T00:46:22.160Z,3.00
2022-08-28T00:47:22.103Z,2.90
2022-08-28T00:48:22.087Z,3.10
2022-08-28T00:49:22.079Z,3.00
2022-08-28T00:50:22.100Z,3.40
2022-08-28T00:51:22.060Z,3.10
2022-08-28T00:52:22.041Z,3.00
2022-08-28T00:53:25.321Z,2.90
2022-08-28T00:54:22.031Z,2.90
2022-08-28T00:55:22.069Z,2.90
2022-08-28T00:56:22.012Z,3.10
2022-08-28T00:57:22.001Z,2.90
2022-08-28T00:58:22.988Z,3.10
2022-08-28T00:59:21.980Z,3.00
2022-08-28T01:00:21.985Z,3.20
2022-08-28T01:01:22.027Z,2.90
2022-08-28T01:02:22.000Z,2.90
2022-08-28T01:03:25.074Z,2.80
2022-08-28T01:04:21.932Z,2.90
2022-08-28T01:05:22.011Z,3.10
2022-08-28T01:06:21.911Z,3.00
2022-08-28T01:07:21.898Z,2.80
2022-08-28T01:08:21.886Z,2.80
2022-08-28T01:09:21.883Z,2.80
2022-08-28T01:10:21.913Z,3.20
2022-08-28T01:11:21.858Z,3.20
2022-08-28T01:12:21.849Z,3.20
2022-08-28T01:13:21.838Z,3.30
2022-08-28T01:14:21.825Z,3.00
2022-08-28T01:15:21.818Z,3.40
2022-08-28T01:16:21.854Z,3.30
2022-08-28T01:17:21.843Z,3.30
2022-08-28T01:18:21.791Z,3.90
2022-08-28T01:19:21.781Z,3.60
2022-08-28T01:20:21.770Z,3.60
2022-08-28T01:21:21.774Z,3.20
2022-08-28T01:22:21.748Z,3.20
2022-08-28T01:23:21.740Z,3.20
2022-08-28T01:24:21.723Z,3.10
2022-08-28T01:25:21.719Z,3.30
2022-08-28T01:26:21.752Z,2.90
2022-08-28T01:27:21.690Z,3.30
2022-08-28T01:28:21.685Z,3.50
2022-08-28T01:29:21.677Z,3.30
2022-08-28T01:30:21.663Z,3.10
2022-08-28T01:31:21.747Z,2.90
2022-08-28T01:32:21.643Z,2.90
2022-08-28T01:33:28.077Z,3.30
2022-08-28T01:34:22.613Z,3.50
2022-08-28T01:35:22.610Z,3.30
2022-08-28T01:36:21.616Z,3.30
2022-08-28T01:37:21.591Z,3.30
2022-08-28T01:38:21.901Z,3.10
2022-08-28T01:39:22.573Z,3.10
2022-08-28T01:40:21.623Z,3.50
2022-08-28T01:41:21.568Z,3.50
2022-08-28T01:42:21.543Z,3.50
2022-08-28T01:43:21.532Z,3.50
2022-08-28T01:44:21.522Z,3.50
2022-08-28T01:45:21.513Z,3.30
2022-08-28T01:46:21.601Z,3.40
2022-08-28T01:47:21.492Z,3.80
2022-08-28T01:48:21.479Z,3.70
2022-08-28T01:49:21.470Z,3.50
2022-08-28T01:50:21.462Z,3.90
2022-08-28T01:51:24.492Z,3.20
2022-08-28T01:52:26.395Z,3.40
2022-08-28T01:53:23.552Z,3.60
2022-08-28T01:54:21.423Z,3.20
2022-08-28T01:55:21.665Z,3.40
2022-08-28T01:56:21.446Z,3.40
2022-08-28T01:57:21.389Z,3.60
2022-08-28T01:58:21.382Z,3.70
2022-08-28T01:59:21.376Z,3.50
2022-08-28T02:00:21.360Z,3.80
2022-08-28T02:01:21.409Z,3.70
2022-08-28T02:02:21.353Z,3.50
2022-08-28T02:03:21.321Z,3.50
2022-08-28T02:04:21.372Z,4.00
2022-08-28T02:05:22.314Z,3.50
2022-08-28T02:06:21.299Z,3.60
2022-08-28T02:07:21.301Z,3.40
2022-08-28T02:08:21.281Z,3.40
2022-08-28T02:09:21.266Z,3.90
2022-08-28T02:10:21.260Z,3.80
2022-08-28T02:11:21.251Z,3.80
2022-08-28T02:12:21.255Z,3.50
2022-08-28T02:13:21.228Z,3.80
2022-08-28T02:14:21.224Z,3.70
2022-08-28T02:15:23.702Z,3.90
2022-08-28T02:16:21.214Z,3.50
2022-08-28T02:17:21.207Z,3.70
2022-08-28T02:18:21.188Z,4.00
2022-08-28T02:19:21.178Z,3.40
2022-08-28T02:20:21.165Z,3.90
2022-08-28T02:21:21.144Z,4.00
2022-08-28T02:22:21.151Z,3.30
2022-08-28T02:23:21.124Z,3.60
2022-08-28T02:24:21.120Z,3.90
2022-08-28T02:25:21.106Z,4.20
2022-08-28T02:26:21.098Z,4.00
2022-08-28T02:27:21.121Z,4.00
2022-08-28T02:28:21.076Z,3.50
2022-08-28T02:29:21.072Z,3.60
2022-08-28T02:30:21.055Z,4.00
2022-08-28T02:31:21.087Z,3.50
2022-08-28T02:32:21.080Z,3.40
2022-08-28T02:33:21.032Z,3.70
2022-08-28T02:34:21.021Z,3.90
2022-08-28T02:35:21.010Z,3.90
2022-08-28T02:36:20.997Z,3.80
2022-08-28T02:37:20.995Z,3.70
2022-08-28T02:38:21.004Z,4.10
2022-08-28T02:39:20.968Z,3.90
2022-08-28T02:40:21.066Z,3.70
2022-08-28T02:41:20.948Z,3.90
2022-08-28T02:42:20.940Z,4.40
2022-08-28T02:43:20.947Z,3.80
2022-08-28T02:44:20.923Z,4.10
2022-08-28T02:45:20.911Z,3.80
2022-08-28T02:46:20.955Z,4.10
2022-08-28T02:47:20.891Z,4.20
2022-08-28T02:48:20.992Z,4.00
2022-08-28T02:49:20.874Z,3.80
2022-08-28T02:50:20.872Z,4.20
2022-08-28T02:51:20.851Z,4.30
2022-08-28T02:52:20.841Z,4.40
2022-08-28T02:53:20.869Z,4.40
2022-08-28T02:54:20.828Z,4.00
2022-08-28T02:55:20.808Z,4.30
2022-08-28T02:56:20.801Z,4.40
2022-08-28T02:57:20.787Z,4.10
2022-08-28T02:58:20.794Z,4.60
2022-08-28T02:59:20.771Z,4.00
2022-08-28T03:00:20.759Z,3.80
2022-08-28T03:01:20.784Z,4.50
2022-08-28T03:02:20.754Z,3.80
2022-08-28T03:03:20.742Z,4.00
2022-08-28T03:04:20.715Z,4.20
2022-08-28T03:05:20.704Z,4.80
2022-08-28T03:06:20.698Z,4.10
2022-08-28T03:07:20.688Z,4.10
2022-08-28T03:08:20.691Z,4.50
2022-08-28T03:09:21.668Z,4.70
2022-08-28T03:10:20.657Z,4.30
2022-08-28T03:11:20.647Z,4.50
2022-08-28T03:12:20.638Z,4.20
2022-08-28T03:13:23.114Z,4.40
2022-08-28T03:14:21.610Z,4.50
2022-08-28T03:15:20.603Z,4.10
2022-08-28T03:16:20.660Z,4.30
2022-08-28T03:17:20.582Z,4.30
2022-08-28T03:18:20.590Z,4.20
2022-08-28T03:19:20.565Z,4.50
2022-08-28T03:20:20.557Z,4.70
2022-08-28T03:21:20.541Z,5.00
2022-08-28T03:22:20.533Z,4.60
2022-08-28T03:23:20.539Z,4.20
2022-08-28T03:24:20.514Z,4.40
2022-08-28T03:25:20.502Z,4.60
2022-08-28T03:26:20.495Z,4.60
2022-08-28T03:27:20.487Z,4.60
2022-08-28T03:28:20.484Z,4.30
2022-08-28T03:29:20.457Z,4.40
2022-08-28T03:30:20.454Z,4.40
2022-08-28T03:31:20.468Z,4.20
2022-08-28T03:32:20.437Z,4.80
2022-08-28T03:33:20.442Z,4.20
2022-08-28T03:34:20.417Z,4.40
2022-08-28T03:35:20.406Z,4.60
2022-08-28T03:36:20.393Z,4.60
2022-08-28T03:37:20.383Z,5.20
2022-08-28T03:38:20.387Z,5.90
2022-08-28T03:39:20.367Z,4.50
2022-08-28T03:40:20.417Z,5.10
2022-08-28T03:41:20.342Z,4.80
2022-08-28T03:42:20.333Z,4.80
2022-08-28T03:43:20.361Z,4.30
2022-08-28T03:44:20.313Z,4.80
2022-08-28T03:45:20.302Z,5.00
2022-08-28T03:46:20.328Z,5.00
2022-08-28T03:47:20.645Z,4.90
2022-08-28T03:48:20.302Z,4.90
2022-08-28T03:49:20.260Z,5.10
2022-08-28T03:50:20.250Z,5.40
2022-08-28T03:51:21.183Z,5.10
2022-08-28T03:52:21.232Z,5.80
2022-08-28T03:53:20.234Z,5.30
2022-08-28T03:54:20.229Z,4.90
2022-08-28T03:55:20.200Z,5.00
2022-08-28T03:56:20.193Z,4.80
2022-08-28T03:57:20.184Z,5.60
2022-08-28T03:58:20.176Z,5.10
2022-08-28T03:59:20.178Z,5.20
2022-08-28T04:00:20.156Z,5.00
2022-08-28T04:01:20.200Z,5.00
2022-08-28T04:02:20.137Z,5.40
2022-08-28T04:03:20.212Z,4.80
2022-08-28T04:04:20.138Z,4.90
2022-08-28T04:05:20.108Z,5.60
2022-08-28T04:06:20.100Z,5.00
2022-08-28T04:07:20.087Z,5.10
2022-08-28T04:08:20.083Z,5.30
2022-08-28T04:09:20.105Z,5.40
2022-08-28T04:10:20.054Z,5.10
2022-08-28T04:11:20.061Z,5.00
2022-08-28T04:12:20.037Z,5.30
2022-08-28T04:13:20.032Z,5.60
2022-08-28T04:14:20.048Z,5.10
2022-08-28T04:15:20.010Z,5.20
2022-08-28T04:16:20.021Z,5.40
2022-08-28T04:17:19.998Z,6.10
2022-08-28T04:18:19.977Z,5.60
2022-08-28T04:19:20.005Z,6.50
2022-08-28T04:20:19.962Z,6.10
2022-08-28T04:21:19.953Z,5.30
2022-08-28T04:22:19.931Z,5.80
2022-08-28T04:23:19.926Z,6.30
2022-08-28T04:24:19.915Z,5.60
2022-08-28T04:25:19.924Z,6.10
2022-08-28T04:26:19.895Z,5.70
2022-08-28T04:27:19.887Z,5.70
2022-08-28T04:28:19.878Z,6.10
2022-08-28T04:29:19.867Z,6.00
2022-08-28T04:30:19.880Z,5.90
2022-08-28T04:31:19.873Z,5.60
2022-08-28T04:32:20.894Z,6.60
2022-08-28T04:33:19.830Z,5.70
2022-08-28T04:34:19.820Z,5.80
2022-08-28T04:35:19.838Z,5.70
2022-08-28T04:36:19.825Z,5.60
2022-08-28T04:37:19.784Z,6.00
2022-08-28T04:38:19.774Z,5.80
2022-08-28T04:39:19.764Z,5.90
2022-08-28T04:40:19.824Z,5.70
2022-08-28T04:41:19.761Z,5.60
2022-08-28T04:42:19.734Z,5.70
2022-08-28T04:43:19.723Z,5.60
2022-08-28T04:44:19.712Z,5.80
2022-08-28T04:45:19.703Z,5.80
2022-08-28T04:46:19.777Z,5.90
2022-08-28T04:47:19.682Z,5.80
2022-08-28T04:48:19.706Z,5.90
2022-08-28T04:49:19.670Z,5.40
2022-08-28T04:50:19.655Z,6.00
2022-08-28T04:51:19.656Z,5.40
2022-08-28T04:52:19.629Z,5.50
2022-08-28T04:53:19.617Z,6.30
2022-08-28T04:54:19.610Z,6.00
2022-08-28T04:55:27.833Z,5.80
2022-08-28T04:56:45.504Z,5.60
2022-08-28T04:57:19.573Z,5.90
2022-08-28T04:58:19.568Z,6.00
2022-08-28T04:59:19.560Z,5.90
2022-08-28T05:00:19.542Z,6.20
2022-08-28T05:01:19.584Z,5.40
2022-08-28T05:02:19.634Z,5.60
2022-08-28T05:03:19.521Z,5.50
2022-08-28T05:04:19.503Z,6.40
2022-08-28T05:05:19.493Z,6.30
2022-08-28T05:06:19.482Z,6.30
2022-08-28T05:07:19.491Z,5.90
2022-08-28T05:08:19.462Z,5.90
2022-08-28T05:09:19.452Z,5.90
2022-08-28T05:10:19.438Z,5.80
2022-08-28T05:11:34.373Z,5.60
2022-08-28T05:12:20.439Z,6.00
2022-08-28T05:13:19.427Z,5.90
2022-08-28T05:14:19.408Z,5.90
2022-08-28T05:15:19.397Z,5.70
2022-08-28T05:16:19.398Z,6.20
2022-08-28T05:17:19.390Z,6.00
2022-08-28T05:18:19.364Z,5.80
2022-08-28T05:19:19.434Z,5.70
2022-08-28T05:20:19.341Z,5.30
2022-08-28T05:21:19.332Z,6.10
2022-08-28T05:22:19.350Z,5.70
2022-08-28T05:23:19.332Z,5.80
2022-08-28T05:24:19.301Z,6.20
2022-08-28T05:25:19.296Z,5.60
2022-08-28T05:26:19.278Z,5.50
2022-08-28T05:27:19.329Z,5.70
2022-08-28T05:28:19.263Z,5.70
2022-08-28T05:29:19.256Z,5.40
2022-08-28T05:30:19.242Z,6.00
2022-08-28T05:31:19.283Z,6.30
2022-08-28T05:32:19.221Z,5.70
2022-08-28T05:33:19.231Z,6.30
2022-08-28T05:34:19.202Z,6.10
2022-08-28T05:35:19.193Z,5.30
2022-08-28T05:36:19.182Z,5.40
2022-08-28T05:37:19.831Z,5.80
2022-08-28T05:38:20.186Z,5.80
2022-08-28T05:39:19.155Z,5.60
2022-08-28T05:40:19.187Z,5.80
2022-08-28T05:41:19.131Z,6.20
2022-08-28T05:42:19.118Z,5.70
2022-08-28T05:43:19.139Z,5.80
2022-08-28T05:44:19.096Z,5.70
2022-08-28T05:45:19.084Z,6.40
2022-08-28T05:46:19.134Z,5.30
2022-08-28T05:47:21.714Z,6.20
2022-08-28T05:48:19.056Z,5.60
2022-08-28T05:49:19.063Z,5.00
2022-08-28T05:50:19.033Z,5.20
2022-08-28T05:51:19.039Z,6.10
2022-08-28T05:52:19.017Z,5.70
2022-08-28T05:53:19.004Z,5.90
2022-08-28T05:54:19.015Z,6.10
2022-08-28T05:55:18.988Z,4.90
2022-08-28T05:56:18.996Z,6.10
2022-08-28T05:57:18.965Z,5.80
2022-08-28T05:58:18.952Z,5.60
2022-08-28T05:59:18.974Z,5.20
2022-08-28T06:00:18.938Z,5.40
2022-08-28T06:01:18.929Z,6.00
2022-08-28T06:02:18.959Z,5.70
2022-08-28T06:03:18.905Z,5.40
2022-08-28T06:04:19.051Z,5.40
2022-08-28T06:05:18.885Z,5.30
2022-08-28T06:06:18.875Z,5.30
2022-08-28T06:07:18.865Z,5.60
2022-08-28T06:08:18.860Z,5.80
2022-08-28T06:09:18.848Z,5.60
2022-08-28T06:10:18.853Z,5.40
2022-08-28T06:11:18.827Z,5.40
2022-08-28T06:12:18.818Z,5.50
2022-08-28T06:13:19.068Z,5.50
2022-08-28T06:14:18.798Z,5.60
2022-08-28T06:15:18.791Z,5.30
2022-08-28T06:16:19.804Z,5.40
2022-08-28T06:17:23.495Z,4.80
2022-08-28T06:18:19.761Z,5.10
2022-08-28T06:19:18.745Z,5.40
2022-08-28T06:20:18.779Z,5.40
2022-08-28T06:21:18.725Z,5.50
2022-08-28T06:22:18.716Z,4.90
2022-08-28T06:23:21.345Z,5.50
2022-08-28T06:24:19.696Z,5.30
2022-08-28T06:25:18.728Z,5.10
2022-08-28T06:26:18.677Z,5.20
2022-08-28T06:27:18.668Z,5.30
2022-08-28T06:28:18.657Z,5.80
2022-08-28T06:29:20.985Z,5.40
2022-08-28T06:30:18.641Z,5.80
2022-08-28T06:31:23.784Z,4.90
2022-08-28T06:32:20.655Z,5.50
2022-08-28T06:33:18.606Z,5.60
2022-08-28T06:34:18.600Z,5.00
2022-08-28T06:35:18.587Z,5.20
2022-08-28T06:36:18.591Z,5.40
2022-08-28T06:37:18.563Z,5.50
2022-08-28T06:38:18.559Z,5.60
2022-08-28T06:39:18.544Z,5.50
2022-08-28T06:40:18.573Z,5.40
2022-08-28T06:41:18.541Z,6.10
2022-08-28T06:42:18.517Z,5.40
2022-08-28T06:43:18.507Z,5.60
2022-08-28T06:44:18.504Z,5.50
2022-08-28T06:45:18.490Z,5.50
2022-08-28T06:46:18.571Z,5.40
2022-08-28T06:47:18.468Z,5.50
2022-08-28T06:48:18.461Z,5.50
2022-08-28T06:49:18.448Z,5.50
2022-08-28T06:50:18.433Z,5.60
2022-08-28T06:51:18.457Z,5.80
2022-08-28T06:52:18.414Z,5.50
2022-08-28T06:53:18.405Z,6.00
2022-08-28T06:54:22.977Z,5.20
2022-08-28T06:55:19.385Z,5.60
2022-08-28T06:56:25.472Z,4.90
2022-08-28T06:57:19.382Z,5.60
2022-08-28T06:58:18.358Z,5.40
2022-08-28T06:59:18.362Z,5.50
2022-08-28T07:00:18.339Z,5.50
2022-08-28T07:01:18.354Z,5.80
2022-08-28T07:02:18.455Z,5.50
2022-08-28T07:03:18.308Z,5.60
2022-08-28T07:04:18.297Z,4.80
2022-08-28T07:05:18.285Z,5.00
2022-08-28T07:06:18.275Z,5.30
2022-08-28T07:07:31.289Z,5.50
2022-08-28T07:08:19.258Z,5.10
2022-08-28T07:09:18.245Z,5.60
2022-08-28T07:10:18.239Z,5.40
2022-08-28T07:11:18.227Z,5.00
2022-08-28T07:12:18.248Z,5.30
2022-08-28T07:13:18.211Z,5.20
2022-08-28T07:14:18.196Z,6.80
2022-08-28T07:15:18.190Z,4.90
2022-08-28T07:16:18.195Z,5.20
2022-08-28T07:17:18.166Z,5.90
2022-08-28T07:18:18.172Z,5.00
2022-08-28T07:19:18.147Z,5.00
2022-08-28T07:20:18.135Z,5.40
2022-08-28T07:21:18.129Z,5.20
2022-08-28T07:22:18.118Z,5.50
2022-08-28T07:23:18.123Z,5.60
2022-08-28T07:24:18.099Z,5.40
2022-08-28T07:25:18.090Z,5.10
2022-08-28T07:26:18.079Z,5.40
2022-08-28T07:27:19.166Z,5.70
2022-08-28T07:28:19.089Z,5.40
2022-08-28T07:29:18.050Z,5.30
2022-08-28T07:30:18.034Z,5.10
2022-08-28T07:31:18.093Z,5.20
2022-08-28T07:32:18.019Z,5.00
2022-08-28T07:33:18.023Z,5.40
2022-08-28T07:34:18.016Z,5.10
2022-08-28T07:35:17.988Z,5.60
2022-08-28T07:36:28.936Z,5.10
2022-08-28T07:37:18.969Z,5.60
2022-08-28T07:38:17.974Z,4.90
2022-08-28T07:39:17.963Z,4.90
2022-08-28T07:40:18.025Z,5.50
2022-08-28T07:41:17.923Z,4.80
2022-08-28T07:42:17.919Z,5.20
2022-08-28T07:43:17.919Z,5.20
2022-08-28T07:44:17.916Z,5.20
2022-08-28T07:45:17.883Z,4.80
2022-08-28T07:46:17.900Z,5.20
2022-08-28T07:47:17.865Z,5.20
2022-08-28T07:48:21.365Z,5.10
2022-08-28T07:49:17.841Z,4.80
2022-08-28T07:50:17.847Z,5.40
2022-08-28T07:51:17.825Z,4.70
2022-08-28T07:52:17.813Z,5.70
2022-08-28T07:53:17.821Z,5.30
2022-08-28T07:54:18.350Z,5.10
2022-08-28T07:55:17.781Z,5.40
2022-08-28T07:56:17.769Z,4.90
2022-08-28T07:57:17.759Z,5.10
2022-08-28T07:58:17.798Z,5.50
2022-08-28T07:59:19.435Z,5.20
2022-08-28T08:00:17.730Z,5.40
2022-08-28T08:01:17.773Z,4.90
2022-08-28T08:02:17.710Z,5.40
2022-08-28T08:03:17.761Z,5.00
2022-08-28T08:04:17.699Z,5.30
2022-08-28T08:05:17.680Z,5.30
2022-08-28T08:06:17.669Z,5.10
2022-08-28T08:07:17.660Z,5.00
2022-08-28T08:08:17.647Z,5.60
2022-08-28T08:09:17.657Z,4.90
2022-08-28T08:10:20.708Z,5.30
2022-08-28T08:11:17.632Z,5.10
2022-08-28T08:12:17.610Z,5.10
2022-08-28T08:13:17.602Z,5.30
2022-08-28T08:14:17.608Z,5.10
2022-08-28T08:15:17.580Z,5.40
2022-08-28T08:16:17.612Z,5.00
2022-08-28T08:17:17.559Z,5.00
2022-08-28T08:18:17.552Z,4.90
2022-08-28T08:19:17.556Z,5.20
2022-08-28T08:20:17.529Z,5.00
2022-08-28T08:21:17.524Z,4.90
2022-08-28T08:22:17.514Z,5.40
2022-08-28T08:23:17.503Z,5.20
2022-08-28T08:24:20.043Z,5.10
2022-08-28T08:25:17.483Z,4.80
2022-08-28T08:26:17.476Z,5.10
2022-08-28T08:27:17.465Z,5.40
2022-08-28T08:28:17.452Z,5.10
2022-08-28T08:29:17.487Z,5.00
2022-08-28T08:30:17.438Z,5.30
2022-08-28T08:31:17.458Z,5.20
2022-08-28T08:32:17.418Z,4.40
2022-08-28T08:33:17.408Z,4.90
2022-08-28T08:34:17.400Z,4.90
2022-08-28T08:35:17.407Z,4.30
2022-08-28T08:36:17.375Z,4.60
2022-08-28T08:37:17.373Z,4.60
2022-08-28T08:38:17.356Z,4.70
2022-08-28T08:39:17.349Z,4.70
2022-08-28T08:40:17.384Z,5.20
2022-08-28T08:41:17.329Z,5.30
2022-08-28T08:42:17.315Z,5.00
2022-08-28T08:43:17.310Z,4.60
2022-08-28T08:44:17.299Z,4.60
2022-08-28T08:45:17.306Z,4.60
2022-08-28T08:46:17.320Z,4.70
2022-08-28T08:47:17.270Z,5.10
2022-08-28T08:48:17.284Z,4.60
2022-08-28T08:49:17.252Z,4.70
2022-08-28T08:50:17.269Z,4.50
2022-08-28T08:51:17.229Z,4.30
2022-08-28T08:52:17.223Z,4.00
2022-08-28T08:53:18.212Z,4.70
2022-08-28T08:54:17.203Z,4.40
2022-08-28T08:55:17.213Z,4.40
2022-08-28T08:56:17.180Z,4.50
2022-08-28T08:57:17.170Z,3.90
2022-08-28T08:58:17.160Z,4.40
2022-08-28T08:59:17.154Z,4.70
2022-08-28T09:00:17.179Z,4.40
2022-08-28T09:01:17.266Z,4.50
2022-08-28T09:02:17.115Z,4.30
2022-08-28T09:03:17.214Z,4.70
2022-08-28T09:04:21.522Z,4.50
2022-08-28T09:05:18.116Z,4.60
2022-08-28T09:06:17.079Z,4.20
2022-08-28T09:07:17.073Z,4.40
2022-08-28T09:08:17.063Z,4.40
2022-08-28T09:09:17.049Z,4.60
2022-08-28T09:10:17.045Z,4.20
2022-08-28T09:11:18.045Z,4.10
2022-08-28T09:12:17.017Z,4.10
2022-08-28T09:13:17.011Z,4.80
2022-08-28T09:14:17.067Z,4.00
2022-08-28T09:15:17.007Z,4.20
2022-08-28T09:16:17.078Z,4.30
2022-08-28T09:17:16.970Z,3.70
2022-08-28T09:18:16.957Z,4.20
2022-08-28T09:19:16.955Z,4.10
2022-08-28T09:20:16.957Z,4.30
2022-08-28T09:21:16.951Z,4.30
2022-08-28T09:22:16.922Z,4.30
2022-08-28T09:23:16.911Z,4.10
2022-08-28T09:24:16.903Z,4.40
2022-08-28T09:25:16.908Z,4.40
2022-08-28T09:26:16.897Z,4.30
2022-08-28T09:27:16.878Z,4.30
2022-08-28T09:28:16.867Z,3.70
2022-08-28T09:29:16.859Z,3.80
2022-08-28T09:30:16.860Z,4.20
2022-08-28T09:31:18.962Z,3.70
2022-08-28T09:32:16.823Z,4.50
2022-08-28T09:33:16.814Z,4.10
2022-08-28T09:34:16.805Z,4.00
2022-08-28T09:35:16.810Z,4.00
2022-08-28T09:36:16.802Z,4.10
2022-08-28T09:37:16.775Z,4.50
2022-08-28T09:38:16.764Z,4.10
2022-08-28T09:39:16.756Z,4.00
2022-08-28T09:40:16.830Z,3.50
2022-08-28T09:41:16.750Z,3.80
2022-08-28T09:42:16.723Z,3.80
2022-08-28T09:43:16.716Z,4.10
2022-08-28T09:44:16.728Z,3.60
2022-08-28T09:45:16.720Z,3.80
2022-08-28T09:46:16.794Z,3.80
2022-08-28T09:47:16.678Z,4.00
2022-08-28T09:48:16.668Z,4.00
2022-08-28T09:49:16.659Z,3.90
2022-08-28T09:50:16.667Z,3.80
2022-08-28T09:51:16.656Z,3.50
2022-08-28T09:52:16.631Z,3.90
2022-08-28T09:53:16.621Z,3.50
2022-08-28T09:54:16.628Z,3.90
2022-08-28T09:55:16.601Z,3.70
2022-08-28T09:56:16.591Z,3.60
2022-08-28T09:57:16.580Z,3.70
2022-08-28T09:58:16.569Z,3.50
2022-08-28T09:59:16.580Z,3.70
2022-08-28T10:00:16.552Z,3.60
2022-08-28T10:01:16.574Z,3.30
2022-08-28T10:02:16.532Z,3.80
2022-08-28T10:03:16.523Z,3.80
2022-08-28T10:04:16.566Z,3.80
2022-08-28T10:05:16.502Z,4.00
2022-08-28T10:06:16.489Z,4.10
2022-08-28T10:07:16.484Z,3.40
2022-08-28T10:08:16.472Z,3.60
2022-08-28T10:09:16.478Z,3.60
2022-08-28T10:10:17.635Z,4.10
2022-08-28T10:11:16.438Z,4.20
2022-08-28T10:12:16.429Z,4.10
2022-08-28T10:13:16.433Z,4.20
2022-08-28T10:14:16.467Z,3.80
2022-08-28T10:15:16.415Z,4.20
2022-08-28T10:16:16.564Z,4.30
2022-08-28T10:17:16.381Z,3.90
2022-08-28T10:18:17.377Z,4.00
2022-08-28T10:19:16.397Z,3.90
2022-08-28T10:20:16.356Z,3.70
2022-08-28T10:21:16.342Z,3.60
2022-08-28T10:22:16.333Z,3.80
2022-08-28T10:23:17.781Z,4.10
2022-08-28T10:24:24.721Z,3.80
2022-08-28T10:25:17.307Z,3.60
2022-08-28T10:26:16.294Z,3.80
2022-08-28T10:27:16.280Z,3.80
2022-08-28T10:28:16.279Z,4.10
2022-08-28T10:29:16.271Z,3.70
2022-08-28T10:30:16.272Z,3.90
2022-08-28T10:31:16.299Z,3.80
2022-08-28T10:32:16.229Z,3.60
2022-08-28T10:33:16.221Z,3.80
2022-08-28T10:34:17.208Z,3.80
2022-08-28T10:35:17.244Z,3.90
2022-08-28T10:36:32.117Z,3.60
2022-08-28T10:37:17.186Z,3.40
2022-08-28T10:38:16.184Z,3.80
2022-08-28T10:39:16.165Z,3.80
2022-08-28T10:40:16.269Z,4.30
2022-08-28T10:41:16.144Z,3.80
2022-08-28T10:42:16.134Z,3.70
2022-08-28T10:43:16.126Z,3.80
2022-08-28T10:44:16.120Z,3.30
2022-08-28T10:45:16.109Z,3.50
2022-08-28T10:46:16.168Z,3.40
2022-08-28T10:47:16.088Z,3.60
2022-08-28T10:48:16.079Z,4.00
2022-08-28T10:49:16.071Z,3.50
2022-08-28T10:50:16.069Z,3.60
2022-08-28T10:51:16.082Z,3.90
2022-08-28T10:52:16.043Z,3.90
2022-08-28T10:53:16.033Z,3.90
2022-08-28T10:54:16.020Z,3.80
2022-08-28T10:55:16.013Z,3.50
2022-08-28T10:56:16.074Z,4.00
2022-08-28T10:57:47.874Z,3.70
2022-08-28T10:58:24.284Z,3.80
2022-08-28T10:59:16.969Z,3.70
2022-08-28T11:00:15.962Z,3.40
2022-08-28T11:01:16.018Z,4.00
2022-08-28T11:02:16.015Z,3.70
2022-08-28T11:03:33.561Z,3.80
2022-08-28T11:04:24.918Z,3.70
2022-08-28T11:05:17.918Z,3.40
2022-08-28T11:06:15.906Z,3.50
2022-08-28T11:07:15.924Z,3.30
2022-08-28T11:08:15.888Z,3.50
2022-08-28T11:09:15.879Z,3.60
2022-08-28T11:10:15.866Z,3.60
2022-08-28T11:11:15.867Z,3.40
2022-08-28T11:12:15.848Z,3.80
2022-08-28T11:13:15.898Z,3.40
2022-08-28T11:14:15.833Z,3.40
2022-08-28T11:15:15.825Z,3.30
2022-08-28T11:16:15.869Z,3.30
2022-08-28T11:17:15.806Z,3.40
2022-08-28T11:18:15.835Z,3.00
2022-08-28T11:19:15.791Z,3.80
2022-08-28T11:20:15.791Z,3.40
2022-08-28T11:21:15.769Z,2.80
2022-08-28T11:22:15.756Z,3.30
2022-08-28T11:23:15.773Z,3.60
2022-08-28T11:24:15.738Z,4.00
2022-08-28T11:25:15.727Z,3.30
2022-08-28T11:26:15.718Z,3.80
2022-08-28T11:27:15.707Z,3.50
2022-08-28T11:28:15.698Z,3.40
2022-08-28T11:29:15.710Z,3.60
2022-08-28T11:30:15.681Z,3.80
2022-08-28T11:31:19.029Z,3.60
2022-08-28T11:32:16.668Z,3.80
2022-08-28T11:33:15.652Z,3.30
2022-08-28T11:34:15.705Z,3.60
2022-08-28T11:35:15.636Z,3.60
2022-08-28T11:36:15.623Z,3.60
2022-08-28T11:37:15.612Z,3.50
2022-08-28T11:38:18.426Z,3.60
2022-08-28T11:39:16.643Z,3.30
2022-08-28T11:40:15.652Z,3.60
2022-08-28T11:41:15.578Z,3.40
2022-08-28T11:42:15.568Z,3.70
2022-08-28T11:43:16.215Z,3.60
2022-08-28T11:44:15.601Z,3.80
2022-08-28T11:45:15.538Z,3.70
2022-08-28T11:46:15.579Z,3.60
2022-08-28T11:47:15.523Z,3.20
2022-08-28T11:48:15.511Z,3.20
2022-08-28T11:49:15.500Z,3.20
2022-08-28T11:50:15.507Z,3.40
2022-08-28T11:51:15.483Z,3.10
2022-08-28T11:52:15.473Z,3.20
2022-08-28T11:53:15.465Z,3.10
2022-08-28T11:54:15.451Z,3.50
2022-08-28T11:55:15.462Z,3.50
2022-08-28T11:56:18.628Z,3.70
2022-08-28T11:57:16.424Z,3.40
2022-08-28T11:58:15.425Z,3.70
2022-08-28T11:59:15.403Z,3.10
2022-08-28T12:00:15.466Z,4.20
2022-08-28T12:01:15.385Z,3.20
2022-08-28T12:02:15.448Z,3.30
2022-08-28T12:03:15.485Z,3.40
2022-08-28T12:04:15.405Z,3.90
2022-08-28T12:05:15.386Z,3.30
2022-08-28T12:06:15.333Z,3.10
2022-08-28T12:07:15.327Z,3.30
2022-08-28T12:08:15.319Z,2.90
2022-08-28T12:09:15.529Z,3.00
2022-08-28T12:10:15.301Z,3.60
2022-08-28T12:11:15.310Z,3.10
2022-08-28T12:12:15.281Z,3.30
2022-08-28T12:13:15.393Z,3.40
2022-08-28T12:14:15.264Z,3.50
2022-08-28T12:15:15.255Z,3.70
2022-08-28T12:16:15.798Z,3.40
2022-08-28T12:17:15.237Z,3.00
2022-08-28T12:18:15.229Z,3.50
2022-08-28T12:19:15.218Z,3.50
2022-08-28T12:20:15.206Z,3.20
2022-08-28T12:21:15.213Z,3.30
2022-08-28T12:22:15.188Z,3.10
2022-08-28T12:23:15.228Z,3.20
2022-08-28T12:24:15.171Z,3.30
2022-08-28T12:25:15.168Z,3.20
2022-08-28T12:26:15.171Z,3.10
2022-08-28T12:27:15.145Z,3.20
2022-08-28T12:28:15.147Z,3.50
2022-08-28T12:29:15.123Z,3.50
2022-08-28T12:30:15.115Z,3.10
2022-08-28T12:31:15.208Z,3.20
2022-08-28T12:32:15.129Z,3.50
2022-08-28T12:33:15.131Z,3.40
2022-08-28T12:34:15.074Z,3.20
2022-08-28T12:35:16.633Z,3.30
2022-08-28T12:36:16.086Z,3.00
2022-08-28T12:37:15.047Z,3.40
2022-08-28T12:38:15.039Z,3.10
2022-08-28T12:39:15.031Z,3.50
2022-08-28T12:40:15.061Z,3.30
2022-08-28T12:41:15.076Z,3.30
2022-08-28T12:42:14.999Z,3.30
2022-08-28T12:43:15.490Z,3.20
2022-08-28T12:44:14.980Z,3.10
2022-08-28T12:45:14.968Z,3.60
2022-08-28T12:46:19.373Z,3.20
2022-08-28T12:47:15.965Z,3.30
2022-08-28T12:48:14.942Z,3.20
2022-08-28T12:49:14.933Z,3.20
2022-08-28T12:50:14.918Z,3.30
2022-08-28T12:51:14.912Z,3.30
2022-08-28T12:52:16.912Z,3.30
2022-08-28T12:53:15.078Z,3.20
2022-08-28T12:54:14.883Z,3.20
2022-08-28T12:55:14.875Z,3.50
2022-08-28T12:56:14.866Z,3.10
2022-08-28T12:57:14.871Z,3.30
2022-08-28T12:58:14.864Z,3.20
2022-08-28T12:59:14.835Z,3.20
2022-08-28T13:00:14.821Z,3.30
2022-08-28T13:01:14.877Z,3.80
2022-08-28T13:02:14.951Z,3.40
2022-08-28T13:03:14.920Z,3.50
2022-08-28T13:04:14.786Z,3.40
2022-08-28T13:05:14.777Z,3.30
2022-08-28T13:06:14.766Z,3.30
2022-08-28T13:07:14.786Z,3.50
2022-08-28T13:08:14.760Z,3.20
2022-08-28T13:09:14.735Z,3.30
2022-08-28T13:10:14.727Z,3.50
2022-08-28T13:11:14.716Z,3.50
2022-08-28T13:12:14.703Z,3.50
2022-08-28T13:13:14.721Z,3.20
2022-08-28T13:14:14.679Z,3.20
2022-08-28T13:15:14.677Z,3.30
2022-08-28T13:16:15.730Z,3.60
2022-08-28T13:17:14.653Z,3.30
2022-08-28T13:18:14.661Z,3.40